createdAt,value
2022-09-16T00:00:31.956Z,13.80
2022-09-16T00:05:34.042Z,16.08
2022-09-16T00:10:36.323Z,16.55
2022-09-16T00:15:43.204Z,15.80
2022-09-16T00:20:51.082Z,15.27
2022-09-16T00:25:55.259Z,17.42
2022-09-16T00:31:01.235Z,16.35
2022-09-16T00:36:15.457Z,17.15
2022-09-16T00:41:21.150Z,13.23
2022-09-16T00:46:39.147Z,15.82
2022-09-16T00:51:42.745Z,17.30
2022-09-16T00:56:48.109Z,18.80
2022-09-16T01:01:51.844Z,12.23
2022-09-16T01:06:54.680Z,14.38
2022-09-16T01:11:56.839Z,13.27
2022-09-16T01:17:16.773Z,12.93
2022-09-16T01:22:36.054Z,12.02
2022-09-16T01:27:52.429Z,14.07
2022-09-16T01:33:05.020Z,13.15
2022-09-16T01:38:18.285Z,16.45
2022-09-16T01:43:50.890Z,16.80
2022-09-16T01:49:07.402Z,13.10
2022-09-16T01:54:18.925Z,14.32
2022-09-16T01:59:23.345Z,13.13
2022-09-16T02:04:32.005Z,12.68
2022-09-16T02:09:39.272Z,11.40
2022-09-16T02:14:46.193Z,13.77
2022-09-16T02:20:05.111Z,7.72
2022-09-16T02:25:09.116Z,12.20
2022-09-16T02:30:17.057Z,10.05
2022-09-16T02:35:20.944Z,12.10
2022-09-16T02:40:27.324Z,10.32
2022-09-16T02:45:59.460Z,12.43
2022-09-16T02:51:12.392Z,9.40
2022-09-16T02:56:24.968Z,12.15
2022-09-16T03:01:30.519Z,14.93
2022-09-16T03:06:36.160Z,12.13
2022-09-16T03:11:50.148Z,15.05
2022-09-16T03:17:00.974Z,12.25
2022-09-16T03:22:11.856Z,9.32
2022-09-16T03:27:20.804Z,10.20
2022-09-16T03:32:27.481Z,12.40
2022-09-16T03:37:34.367Z,12.30
2022-09-16T03:42:39.904Z,9.43
2022-09-16T03:47:43.224Z,14.32
2022-09-16T03:52:45.353Z,11.10
2022-09-16T03:57:47.339Z,9.55
2022-09-16T04:02:49.476Z,9.88
2022-09-16T04:07:51.681Z,10.70
2022-09-16T04:12:58.488Z,10.60
2022-09-16T04:18:00.641Z,11.93
2022-09-16T04:23:02.833Z,11.73
2022-09-16T04:28:04.753Z,9.43
2022-09-16T04:33:07.016Z,10.63
2022-09-16T04:38:08.886Z,12.80
2022-09-16T04:43:10.787Z,14.00
2022-09-16T04:48:12.868Z,10.20
2022-09-16T04:53:14.837Z,10.32
2022-09-16T04:58:16.765Z,15.13
2022-09-16T05:03:18.895Z,13.20
2022-09-16T05:08:20.768Z,9.80
2022-09-16T05:13:23.589Z,7.82
2022-09-16T05:18:25.525Z,10.67
2022-09-16T05:23:28.089Z,16.13
2022-09-16T05:28:30.013Z,11.52
2022-09-16T05:33:32.164Z,10.50
2022-09-16T05:38:34.318Z,10.38
2022-09-16T05:43:36.892Z,12.13
2022-09-16T05:48:38.822Z,7.38
2022-09-16T05:53:40.720Z,7.45
2022-09-16T05:58:43.068Z,12.65
2022-09-16T06:03:46.671Z,12.25
2022-09-16T06:08:48.993Z,12.25
2022-09-16T06:13:56.109Z,10.57
2022-09-16T06:18:58.117Z,5.75
2022-09-16T06:24:00.289Z,8.02
2022-09-16T06:29:02.444Z,9.00
2022-09-16T06:34:06.258Z,6.35
2022-09-16T06:39:11.434Z,9.43
2022-09-16T06:44:13.421Z,6.80
2022-09-16T06:49:15.291Z,5.90
2022-09-16T06:54:17.521Z,6.60
2022-09-16T06:59:19.369Z,6.05
2022-09-16T07:04:21.261Z,6.43
2022-09-16T07:09:24.036Z,4.78
2022-09-16T07:14:27.711Z,8.50
2022-09-16T07:19:29.644Z,5.85
2022-09-16T07:24:31.590Z,10.35
2022-09-16T07:29:33.556Z,10.00
2022-09-16T07:34:35.881Z,4.70
2022-09-16T07:39:37.842Z,14.73
2022-09-16T07:44:39.781Z,10.65
2022-09-16T07:49:42.357Z,9.02
2022-09-16T07:54:44.256Z,8.48
2022-09-16T07:59:46.090Z,11.75
2022-09-16T08:04:48.128Z,9.10
2022-09-16T08:09:51.342Z,11.65
2022-09-16T08:14:55.009Z,9.30
2022-09-16T08:19:56.923Z,9.48
2022-09-16T08:24:58.822Z,9.20
2022-09-16T08:30:00.680Z,12.68
2022-09-16T08:35:03.282Z,10.77
2022-09-16T08:40:06.244Z,8.35
2022-09-16T08:45:28.840Z,12.80
2022-09-16T08:50:35.216Z,6.30
2022-09-16T08:55:46.809Z,12.73
2022-09-16T09:00:57.122Z,12.65
2022-09-16T09:06:00.635Z,10.68
2022-09-16T09:11:15.109Z,10.35
2022-09-16T09:16:22.966Z,9.13
2022-09-16T09:21:49.929Z,5.88
2022-09-16T09:27:16.991Z,5.85
2022-09-16T09:32:51.341Z,6.60
2022-09-16T09:38:28.530Z,7.38
2022-09-16T09:43:46.799Z,6.13
2022-09-16T09:48:56.193Z,5.03
2022-09-16T09:54:27.035Z,7.90
2022-09-16T09:59:32.822Z,8.13
2022-09-16T10:04:39.073Z,5.35
2022-09-16T10:10:19.077Z,9.38
2022-09-16T10:15:29.061Z,7.57
2022-09-16T10:20:34.900Z,7.80
2022-09-16T10:25:37.176Z,8.88
2022-09-16T10:30:52.548Z,8.98
2022-09-16T10:36:01.101Z,6.50
2022-09-16T10:41:15.795Z,5.28
2022-09-16T10:46:19.207Z,9.25
2022-09-16T10:56:31.195Z,6.95
2022-09-16T11:02:04.286Z,8.13
2022-09-16T11:07:22.001Z,5.25
2022-09-16T11:12:45.673Z,5.03
2022-09-16T11:23:13.720Z,6.22
2022-09-16T11:28:36.638Z,4.45
2022-09-16T11:34:01.383Z,5.87
2022-09-16T11:39:13.706Z,3.50
2022-09-16T11:44:41.182Z,7.55
2022-09-16T11:50:07.272Z,3.97
2022-09-16T11:55:26.248Z,3.03
2022-09-16T12:00:31.438Z,6.00
2022-09-16T12:06:09.573Z,4.25
2022-09-16T12:11:19.559Z,2.85
2022-09-16T12:16:33.809Z,5.45
2022-09-16T12:21:58.033Z,5.07
2022-09-16T12:27:19.572Z,5.07
2022-09-16T12:32:56.778Z,6.82
2022-09-16T12:37:59.513Z,6.88
2022-09-16T12:43:10.880Z,3.97
2022-09-16T12:48:41.819Z,7.07
2022-09-16T12:53:52.848Z,6.53
2022-09-16T12:59:38.281Z,15.73
2022-09-16T13:04:44.147Z,5.00
2022-09-16T13:09:47.440Z,5.88
2022-09-16T13:15:05.053Z,6.20
2022-09-16T13:20:18.096Z,3.78
2022-09-16T13:25:38.907Z,6.03
2022-09-16T13:30:40.848Z,5.10
2022-09-16T13:35:44.868Z,8.13
2022-09-16T13:40:58.615Z,5.95
2022-09-16T13:46:09.219Z,11.02
2022-09-16T13:51:18.252Z,6.93
2022-09-16T13:56:26.132Z,5.03
2022-09-16T14:01:58.404Z,5.38
2022-09-16T14:07:10.914Z,3.70
2022-09-16T14:12:31.641Z,5.68
2022-09-16T14:17:45.655Z,4.72
2022-09-16T14:23:04.948Z,5.22
2022-09-16T14:28:15.514Z,3.92
2022-09-16T14:33:22.298Z,5.93
2022-09-16T14:38:45.628Z,2.42
2022-09-16T14:43:48.627Z,2.40
2022-09-16T14:48:50.768Z,4.35
2022-09-16T14:54:12.210Z,17.08
2022-09-16T14:59:15.439Z,7.10
2022-09-16T15:04:25.981Z,18.30
2022-09-16T15:09:45.363Z,7.90
2022-09-16T15:14:48.075Z,3.63
2022-09-16T15:19:54.348Z,3.60
2022-09-16T15:24:59.460Z,3.97
2022-09-16T15:30:05.377Z,4.70
2022-09-16T15:35:19.916Z,4.53
2022-09-16T15:40:27.983Z,10.70
2022-09-16T15:45:30.187Z,5.45
2022-09-16T15:50:44.352Z,5.38
2022-09-16T15:55:57.944Z,7.80
2022-09-16T16:01:09.627Z,6.57
2022-09-16T16:06:12.542Z,7.25
2022-09-16T16:11:25.165Z,47.60
2022-09-16T16:16:28.662Z,12.23
2022-09-16T16:26:32.855Z,11.23
2022-09-16T16:31:37.166Z,7.72
2022-09-16T16:36:39.334Z,16.33
2022-09-16T16:41:41.293Z,10.15
2022-09-16T16:46:43.591Z,10.10
2022-09-16T16:51:48.385Z,5.15
2022-09-16T16:56:50.875Z,11.88
2022-09-16T17:01:55.337Z,36.50
2022-09-16T17:07:21.397Z,12.15
2022-09-16T17:12:19.716Z,13.43
2022-09-16T17:17:22.163Z,11.05
2022-09-16T17:22:24.091Z,6.63
2022-09-16T17:27:28.808Z,8.10
2022-09-16T17:32:32.802Z,15.27
2022-09-16T17:37:44.935Z,14.02
2022-09-16T17:42:51.451Z,9.40
2022-09-16T17:47:53.528Z,13.35
2022-09-16T17:52:55.898Z,15.10
2022-09-16T17:57:58.273Z,9.73
2022-09-16T18:03:01.358Z,15.60
2022-09-16T18:08:04.572Z,14.27
2022-09-16T18:13:06.533Z,16.60
2022-09-16T18:18:11.070Z,14.57
2022-09-16T18:23:14.220Z,19.40
2022-09-16T18:28:17.122Z,85.45
2022-09-16T18:33:20.485Z,54.53
2022-09-16T18:38:25.497Z,64.55
2022-09-16T18:43:27.721Z,58.60
2022-09-16T18:48:29.667Z,49.72
2022-09-16T18:53:32.761Z,19.67
2022-09-16T18:58:35.159Z,73.88
2022-09-16T19:03:37.567Z,41.33
2022-09-16T19:08:40.759Z,33.85
2022-09-16T19:13:45.308Z,19.42
2022-09-16T19:18:55.337Z,28.53
2022-09-16T19:24:00.135Z,83.53
2022-09-16T19:29:06.831Z,108.55
2022-09-16T19:34:10.453Z,47.45
2022-09-16T19:44:17.148Z,19.55
2022-09-16T19:49:21.360Z,28.05
2022-09-16T19:54:24.384Z,31.42
2022-09-16T19:59:26.916Z,13.30
2022-09-16T20:04:29.788Z,12.98
2022-09-16T20:09:34.816Z,18.97
2022-09-16T20:14:37.458Z,17.13
2022-09-16T20:19:40.737Z,14.55
2022-09-16T20:24:42.741Z,14.57
2022-09-16T20:29:45.028Z,14.48
2022-09-16T20:34:47.197Z,15.95
2022-09-16T20:39:49.420Z,16.85
2022-09-16T20:44:51.645Z,12.50
2022-09-16T20:49:54.773Z,11.20
2022-09-16T20:54:57.201Z,9.70
2022-09-16T20:59:59.729Z,11.45
2022-09-16T21:05:04.772Z,13.02
2022-09-16T21:10:07.649Z,15.40
2022-09-16T21:15:09.969Z,14.10
2022-09-16T21:20:11.969Z,17.00
2022-09-16T21:25:13.996Z,12.00
2022-09-16T21:30:16.610Z,12.32
2022-09-16T21:35:19.065Z,16.33
2022-09-16T21:40:23.551Z,12.88
2022-09-16T21:45:26.272Z,9.52
2022-09-16T21:50:28.284Z,11.65
2022-09-16T21:55:30.704Z,11.25
2022-09-16T22:00:33.160Z,12.73
2022-09-16T22:05:35.174Z,13.90
2022-09-16T22:10:39.081Z,8.43
2022-09-16T22:15:49.857Z,8.38
2022-09-16T22:20:52.589Z,12.30
2022-09-16T22:25:54.717Z,7.10
2022-09-16T22:31:06.334Z,9.52
2022-09-16T22:36:13.893Z,7.50
2022-09-16T22:41:17.625Z,12.02
2022-09-16T22:46:21.926Z,10.52
2022-09-16T22:51:24.705Z,6.65
2022-09-16T22:56:33.544Z,7.93
2022-09-16T23:01:38.737Z,7.40
2022-09-16T23:06:41.372Z,7.65
2022-09-16T23:11:44.162Z,15.18
2022-09-16T23:16:46.114Z,12.23
2022-09-16T23:21:49.964Z,9.77
2022-09-16T23:26:51.926Z,7.20
2022-09-16T23:31:53.905Z,10.02
2022-09-16T23:36:55.828Z,9.23
2022-09-16T23:41:58.929Z,6.53
2022-09-16T23:47:00.931Z,10.95
2022-09-16T23:52:03.391Z,10.95
2022-09-16T23:57:05.593Z,9.10
